sensor_id;sensor_type;location;lat;lon;timestamp;pressure;altitude;pressure_sealevel;temperature;humidity
57234;BME280;43090;52.604;13.318;2024-01-06T00:02:03;99946.69;;;0.71;100.00
57234;BME280;43090;52.604;13.318;2024-01-06T00:04:35;99940.56;;;0.49;100.00
57234;BME280;43090;52.604;13.318;2024-01-06T00:07:02;99957.38;;;0.68;100.00
57234;BME280;43090;52.604;13.318;2024-01-06T00:09:29;99941.47;;;0.48;100.00
57234;BME280;43090;52.604;13.318;2024-01-06T00:12:07;99914.09;;;0.32;100.00
57234;BME280;43090;52.604;13.318;2024-01-06T00:14:52;99936.31;;;0.68;100.00
57234;BME280;43090;52.604;13.318;2024-01-06T00:17:19;99927.47;;;0.48;100.00
57234;BME280;43090;52.604;13.318;2024-01-06T00:19:45;99959.59;;;0.56;100.00
57234;BME280;43090;52.604;13.318;2024-01-06T00:22:18;99949.59;;;0.64;100.00
57234;BME280;43090;52.604;13.318;2024-01-06T00:24:44;99949.25;;;0.72;100.00
57234;BME280;43090;52.604;13.318;2024-01-06T00:27:11;99957.03;;;0.55;100.00
57234;BME280;43090;52.604;13.318;2024-01-06T00:29:38;99945.41;;;0.18;100.00
57234;BME280;43090;52.604;13.318;2024-01-06T00:32:05;99963.06;;;0.36;100.00
57234;BME280;43090;52.604;13.318;2024-01-06T00:34:32;99931.63;;;-0.34;100.00
57234;BME280;43090;52.604;13.318;2024-01-06T00:36:58;99932.69;;;0.07;100.00
57234;BME280;43090;52.604;13.318;2024-01-06T00:39:25;99953.28;;;0.40;100.00
57234;BME280;43090;52.604;13.318;2024-01-06T00:41:52;99956.53;;;0.45;100.00
57234;BME280;43090;52.604;13.318;2024-01-06T00:44:18;99967.13;;;0.65;100.00
57234;BME280;43090;52.604;13.318;2024-01-06T00:46:45;99967.81;;;0.28;100.00
57234;BME280;43090;52.604;13.318;2024-01-06T00:49:11;99973.63;;;0.57;100.00
57234;BME280;43090;52.604;13.318;2024-01-06T00:51:38;99944.94;;;0.28;100.00
57234;BME280;43090;52.604;13.318;2024-01-06T00:57:52;99962.03;;;0.18;100.00
57234;BME280;43090;52.604;13.318;2024-01-06T01:00:20;99959.03;;;0.27;100.00
57234;BME280;43090;52.604;13.318;2024-01-06T01:02:58;99970.97;;;0.57;100.00
57234;BME280;43090;52.604;13.318;2024-01-06T01:05:24;99975.47;;;0.55;100.00
57234;BME280;43090;52.604;13.318;2024-01-06T01:07:52;99965.41;;;-0.01;100.00
57234;BME280;43090;52.604;13.318;2024-01-06T01:10:18;99945.56;;;0.13;100.00
57234;BME280;43090;52.604;13.318;2024-01-06T01:12:45;99992.13;;;0.55;100.00
57234;BME280;43090;52.604;13.318;2024-01-06T01:15:12;99975.94;;;0.44;100.00
57234;BME280;43090;52.604;13.318;2024-01-06T01:17:38;99976.97;;;0.40;100.00
57234;BME280;43090;52.604;13.318;2024-01-06T01:20:05;99996.53;;;0.55;100.00
57234;BME280;43090;52.604;13.318;2024-01-06T01:22:32;99995.75;;;0.30;100.00
57234;BME280;43090;52.604;13.318;2024-01-06T01:24:58;100004.81;;;0.45;100.00
57234;BME280;43090;52.604;13.318;2024-01-06T01:27:27;99990.31;;;0.35;100.00
57234;BME280;43090;52.604;13.318;2024-01-06T01:29:53;100003.78;;;0.70;100.00
57234;BME280;43090;52.604;13.318;2024-01-06T01:32:21;99966.53;;;-0.06;100.00
57234;BME280;43090;52.604;13.318;2024-01-06T01:34:53;99974.34;;;-0.05;100.00
57234;BME280;43090;52.604;13.318;2024-01-06T01:37:29;99992.22;;;0.31;100.00
57234;BME280;43090;52.604;13.318;2024-01-06T01:39:56;99992.13;;;0.55;100.00
57234;BME280;43090;52.604;13.318;2024-01-06T01:42:22;100010.84;;;0.70;100.00
57234;BME280;43090;52.604;13.318;2024-01-06T01:44:49;99984.63;;;0.24;100.00
57234;BME280;43090;52.604;13.318;2024-01-06T01:47:15;99991.72;;;0.44;100.00
57234;BME280;43090;52.604;13.318;2024-01-06T01:49:48;100000.41;;;0.46;100.00
57234;BME280;43090;52.604;13.318;2024-01-06T01:52:15;99986.28;;;0.26;100.00
57234;BME280;43090;52.604;13.318;2024-01-06T01:54:49;99985.19;;;0.32;100.00
57234;BME280;43090;52.604;13.318;2024-01-06T01:57:44;100007.84;;;0.57;100.00
57234;BME280;43090;52.604;13.318;2024-01-06T02:07:17;100017.13;;;0.45;100.00
57234;BME280;43090;52.604;13.318;2024-01-06T02:09:43;100014.09;;;0.54;100.00
57234;BME280;43090;52.604;13.318;2024-01-06T02:12:10;99988.66;;;0.32;100.00
57234;BME280;43090;52.604;13.318;2024-01-06T02:14:49;99986.16;;;0.29;100.00
57234;BME280;43090;52.604;13.318;2024-01-06T02:17:23;100007.53;;;0.44;100.00
57234;BME280;43090;52.604;13.318;2024-01-06T02:19:52;100016.13;;;0.47;100.00
57234;BME280;43090;52.604;13.318;2024-01-06T02:22:19;100020.63;;;0.45;100.00
57234;BME280;43090;52.604;13.318;2024-01-06T02:24:45;100030.41;;;0.64;100.00
57234;BME280;43090;52.604;13.318;2024-01-06T02:27:14;99994.66;;;0.14;100.00
57234;BME280;43090;52.604;13.318;2024-01-06T02:29:40;99984.25;;;0.33;100.00
57234;BME280;43090;52.604;13.318;2024-01-06T02:46:22;100008.53;;;-0.51;100.00
57234;BME280;43090;52.604;13.318;2024-01-06T02:49:04;99997.03;;;-0.24;100.00
57234;BME280;43090;52.604;13.318;2024-01-06T02:52:02;100046.16;;;0.21;100.00
57234;BME280;43090;52.604;13.318;2024-01-06T02:54:42;100006.09;;;-0.09;100.00
57234;BME280;43090;52.604;13.318;2024-01-06T02:57:08;100009.25;;;0.01;100.00
57234;BME280;43090;52.604;13.318;2024-01-06T03:03:36;100046.66;;;0.31;100.00
57234;BME280;43090;52.604;13.318;2024-01-06T03:06:09;100013.66;;;0.00;100.00
57234;BME280;43090;52.604;13.318;2024-01-06T03:15:51;100055.78;;;0.00;100.00
57234;BME280;43090;52.604;13.318;2024-01-06T03:18:18;100043.13;;;0.32;100.00
57234;BME280;43090;52.604;13.318;2024-01-06T03:20:44;100039.91;;;0.46;100.00
57234;BME280;43090;52.604;13.318;2024-01-06T03:23:22;100054.31;;;0.37;100.00
57234;BME280;43090;52.604;13.318;2024-01-06T03:26:12;100049.59;;;0.23;100.00
57234;BME280;43090;52.604;13.318;2024-01-06T03:28:54;100035.16;;;0.33;100.00
57234;BME280;43090;52.604;13.318;2024-01-06T03:31:21;100023.44;;;0.41;100.00
57234;BME280;43090;52.604;13.318;2024-01-06T03:34:02;100027.13;;;0.37;100.00
57234;BME280;43090;52.604;13.318;2024-01-06T03:36:29;100032.75;;;0.49;100.00
57234;BME280;43090;52.604;13.318;2024-01-06T03:38:55;100042.91;;;0.14;100.00
57234;BME280;43090;52.604;13.318;2024-01-06T03:41:22;100041.16;;;0.37;100.00
57234;BME280;43090;52.604;13.318;2024-01-06T03:43:49;100071.22;;;0.54;100.00
57234;BME280;43090;52.604;13.318;2024-01-06T03:46:15;100050.88;;;0.13;100.00
57234;BME280;43090;52.604;13.318;2024-01-06T03:48:51;100082.50;;;0.57;100.00
57234;BME280;43090;52.604;13.318;2024-01-06T03:51:19;100048.75;;;0.23;100.00
57234;BME280;43090;52.604;13.318;2024-01-06T03:53:51;100045.44;;;0.40;100.00
57234;BME280;43090;52.604;13.318;2024-01-06T03:56:17;100071.69;;;0.63;100.00
57234;BME280;43090;52.604;13.318;2024-01-06T03:58:44;100053.69;;;0.53;100.00
57234;BME280;43090;52.604;13.318;2024-01-06T04:01:11;100083.34;;;0.80;100.00
57234;BME280;43090;52.604;13.318;2024-01-06T04:03:41;100083.34;;;0.58;100.00
57234;BME280;43090;52.604;13.318;2024-01-06T04:06:08;100076.63;;;0.51;100.00
57234;BME280;43090;52.604;13.318;2024-01-06T04:09:03;100059.25;;;0.45;100.00
57234;BME280;43090;52.604;13.318;2024-01-06T04:11:42;100056.91;;;0.39;100.00
57234;BME280;43090;52.604;13.318;2024-01-06T04:14:44;100094.56;;;0.63;100.00
57234;BME280;43090;52.604;13.318;2024-01-06T04:17:23;100078.88;;;0.60;100.00
57234;BME280;43090;52.604;13.318;2024-01-06T04:20:16;100056.25;;;0.10;100.00
57234;BME280;43090;52.604;13.318;2024-01-06T04:29:48;100109.50;;;0.40;100.00
57234;BME280;43090;52.604;13.318;2024-01-06T04:32:19;100115.75;;;0.38;100.00
57234;BME280;43090;52.604;13.318;2024-01-06T04:34:46;100119.50;;;0.32;100.00
57234;BME280;43090;52.604;13.318;2024-01-06T04:37:19;100102.16;;;0.03;100.00
57234;BME280;43090;52.604;13.318;2024-01-06T04:39:45;100075.44;;;-0.10;100.00
57234;BME280;43090;52.604;13.318;2024-01-06T04:42:12;100120.22;;;0.58;100.00
57234;BME280;43090;52.604;13.318;2024-01-06T04:44:39;100080.44;;;-0.03;100.00
57234;BME280;43090;52.604;13.318;2024-01-06T04:47:05;100124.69;;;0.33;100.00
57234;BME280;43090;52.604;13.318;2024-01-06T04:49:32;100088.63;;;0.12;100.00
57234;BME280;43090;52.604;13.318;2024-01-06T04:51:59;100090.53;;;0.08;100.00
57234;BME280;43090;52.604;13.318;2024-01-06T04:54:26;100129.91;;;0.57;100.00
57234;BME280;43090;52.604;13.318;2024-01-06T04:56:52;100086.03;;;-0.12;100.00
57234;BME280;43090;52.604;13.318;2024-01-06T04:59:19;100133.63;;;0.06;100.00
57234;BME280;43090;52.604;13.318;2024-01-06T05:01:45;100127.47;;;-0.19;100.00
57234;BME280;43090;52.604;13.318;2024-01-06T05:04:12;100130.88;;;0.09;100.00
57234;BME280;43090;52.604;13.318;2024-01-06T05:06:39;100143.06;;;0.11;100.00
57234;BME280;43090;52.604;13.318;2024-01-06T05:09:06;100129.06;;;-0.13;100.00
57234;BME280;43090;52.604;13.318;2024-01-06T05:11:33;100099.00;;;-0.31;100.00
57234;BME280;43090;52.604;13.318;2024-01-06T05:14:00;100110.69;;;-0.14;100.00
57234;BME280;43090;52.604;13.318;2024-01-06T05:16:41;100145.81;;;0.08;100.00
57234;BME280;43090;52.604;13.318;2024-01-06T05:19:09;100104.03;;;-0.25;100.00
57234;BME280;43090;52.604;13.318;2024-01-06T05:21:36;100143.81;;;0.15;100.00
57234;BME280;43090;52.604;13.318;2024-01-06T05:24:06;100139.00;;;0.03;100.00
57234;BME280;43090;52.604;13.318;2024-01-06T05:26:32;100132.59;;;-0.14;100.00
57234;BME280;43090;52.604;13.318;2024-01-06T05:28:59;100147.41;;;-0.11;100.00
57234;BME280;43090;52.604;13.318;2024-01-06T05:31:29;100146.31;;;-0.06;100.00
57234;BME280;43090;52.604;13.318;2024-01-06T05:33:59;100140.63;;;0.07;100.00
57234;BME280;43090;52.604;13.318;2024-01-06T05:37:18;100131.00;;;-0.43;100.00
57234;BME280;43090;52.604;13.318;2024-01-06T05:40:15;100168.19;;;-0.04;100.00
57234;BME280;43090;52.604;13.318;2024-01-06T05:42:48;100167.22;;;-0.01;100.00
57234;BME280;43090;52.604;13.318;2024-01-06T05:45:15;100156.75;;;-0.03;100.00
57234;BME280;43090;52.604;13.318;2024-01-06T05:47:42;100171.53;;;0.02;100.00
57234;BME280;43090;52.604;13.318;2024-01-06T05:50:09;100170.25;;;0.12;100.00
57234;BME280;43090;52.604;13.318;2024-01-06T05:52:36;100176.72;;;0.03;100.00
57234;BME280;43090;52.604;13.318;2024-01-06T05:55:03;100189.75;;;0.06;100.00
57234;BME280;43090;52.604;13.318;2024-01-06T05:57:30;100157.50;;;-0.24;100.00
57234;BME280;43090;52.604;13.318;2024-01-06T06:00:02;100157.84;;;-0.34;100.00
57234;BME280;43090;52.604;13.318;2024-01-06T06:02:28;100171.22;;;-0.14;100.00
57234;BME280;43090;52.604;13.318;2024-01-06T06:05:03;100177.78;;;-0.26;100.00
57234;BME280;43090;52.604;13.318;2024-01-06T06:07:30;100172.97;;;-0.40;100.00
57234;BME280;43090;52.604;13.318;2024-01-06T06:09:57;100190.94;;;-0.26;100.00
57234;BME280;43090;52.604;13.318;2024-01-06T06:12:25;100202.16;;;-0.21;100.00
57234;BME280;43090;52.604;13.318;2024-01-06T06:14:51;100181.69;;;-0.13;100.00
57234;BME280;43090;52.604;13.318;2024-01-06T06:17:18;100204.97;;;-0.02;100.00
57234;BME280;43090;52.604;13.318;2024-01-06T06:20:00;100230.44;;;-0.03;100.00
57234;BME280;43090;52.604;13.318;2024-01-06T06:22:56;100196.28;;;-0.29;100.00
57234;BME280;43090;52.604;13.318;2024-01-06T06:25:44;100208.34;;;-0.49;100.00
57234;BME280;43090;52.604;13.318;2024-01-06T06:28:37;100242.16;;;-0.11;100.00
57234;BME280;43090;52.604;13.318;2024-01-06T06:34:19;100220.50;;;-0.45;100.00
57234;BME280;43090;52.604;13.318;2024-01-06T06:37:16;100231.44;;;-0.32;100.00
57234;BME280;43090;52.604;13.318;2024-01-06T06:39:51;100230.59;;;-0.07;100.00
57234;BME280;43090;52.604;13.318;2024-01-06T06:42:22;100266.97;;;0.07;100.00
57234;BME280;43090;52.604;13.318;2024-01-06T06:48:57;100250.09;;;-0.13;100.00
57234;BME280;43090;52.604;13.318;2024-01-06T06:51:28;100268.78;;;0.05;100.00
57234;BME280;43090;52.604;13.318;2024-01-06T06:54:10;100243.94;;;-0.39;100.00
57234;BME280;43090;52.604;13.318;2024-01-06T06:56:37;100290.47;;;-0.14;100.00
57234;BME280;43090;52.604;13.318;2024-01-06T07:14:22;100323.88;;;-0.16;100.00
57234;BME280;43090;52.604;13.318;2024-01-06T07:17:51;100291.75;;;-0.53;100.00
57234;BME280;43090;52.604;13.318;2024-01-06T07:20:54;100295.75;;;-0.41;100.00
57234;BME280;43090;52.604;13.318;2024-01-06T07:34:45;100302.28;;;-0.81;100.00
57234;BME280;43090;52.604;13.318;2024-01-06T07:37:34;100308.41;;;-0.80;100.00
57234;BME280;43090;52.604;13.318;2024-01-06T07:40:22;100313.63;;;-0.79;100.00
57234;BME280;43090;52.604;13.318;2024-01-06T07:43:00;100304.53;;;-0.69;100.00
57234;BME280;43090;52.604;13.318;2024-01-06T08:33:57;100395.81;;;-1.04;100.00
57234;BME280;43090;52.604;13.318;2024-01-06T08:36:36;100424.88;;;-1.08;100.00
57234;BME280;43090;52.604;13.318;2024-01-06T08:39:55;100399.66;;;-1.15;100.00
57234;BME280;43090;52.604;13.318;2024-01-06T08:42:47;100404.75;;;-1.42;100.00
57234;BME280;43090;52.604;13.318;2024-01-06T08:50:01;100422.66;;;-0.92;100.00
57234;BME280;43090;52.604;13.318;2024-01-06T08:52:34;100453.66;;;-0.74;100.00
57234;BME280;43090;52.604;13.318;2024-01-06T08:55:19;100436.34;;;-0.81;100.00
57234;BME280;43090;52.604;13.318;2024-01-06T08:58:14;100438.38;;;-0.91;100.00
57234;BME280;43090;52.604;13.318;2024-01-06T09:00:47;100444.31;;;-0.84;100.00
57234;BME280;43090;52.604;13.318;2024-01-06T09:03:34;100462.00;;;-0.89;100.00
57234;BME280;43090;52.604;13.318;2024-01-06T09:13:47;100471.97;;;-0.71;100.00
57234;BME280;43090;52.604;13.318;2024-01-06T09:16:24;100483.06;;;-0.59;100.00
57234;BME280;43090;52.604;13.318;2024-01-06T09:19:40;100519.34;;;-0.41;100.00
57234;BME280;43090;52.604;13.318;2024-01-06T09:30:54;100489.09;;;-0.87;100.00
57234;BME280;43090;52.604;13.318;2024-01-06T09:33:27;100488.59;;;-0.69;100.00
57234;BME280;43090;52.604;13.318;2024-01-06T09:36:02;100496.69;;;-0.46;100.00
57234;BME280;43090;52.604;13.318;2024-01-06T09:38:49;100491.00;;;-0.62;100.00
57234;BME280;43090;52.604;13.318;2024-01-06T09:44:23;100535.59;;;-0.58;100.00
57234;BME280;43090;52.604;13.318;2024-01-06T09:46:52;100534.53;;;-0.84;100.00
57234;BME280;43090;52.604;13.318;2024-01-06T09:49:40;100547.06;;;-0.60;100.00
57234;BME280;43090;52.604;13.318;2024-01-06T09:59:56;100537.81;;;-0.74;100.00
57234;BME280;43090;52.604;13.318;2024-01-06T10:02:39;100527.66;;;-0.88;100.00
57234;BME280;43090;52.604;13.318;2024-01-06T10:05:15;100542.63;;;-0.58;100.00
57234;BME280;43090;52.604;13.318;2024-01-06T10:07:46;100545.03;;;-0.82;100.00
57234;BME280;43090;52.604;13.318;2024-01-06T10:10:18;100528.03;;;-1.02;100.00
57234;BME280;43090;52.604;13.318;2024-01-06T10:12:46;100520.03;;;-0.65;100.00
57234;BME280;43090;52.604;13.318;2024-01-06T10:15:14;100523.47;;;-0.95;100.00
57234;BME280;43090;52.604;13.318;2024-01-06T10:17:47;100524.81;;;-0.80;100.00
57234;BME280;43090;52.604;13.318;2024-01-06T10:20:17;100532.09;;;-0.58;100.00
57234;BME280;43090;52.604;13.318;2024-01-06T10:23:11;100535.03;;;-1.01;100.00
57234;BME280;43090;52.604;13.318;2024-01-06T10:26:01;100561.72;;;-0.83;100.00
57234;BME280;43090;52.604;13.318;2024-01-06T10:29:00;100551.19;;;-0.83;100.00
57234;BME280;43090;52.604;13.318;2024-01-06T10:37:54;100562.00;;;-0.62;100.00
57234;BME280;43090;52.604;13.318;2024-01-06T10:40:34;100575.22;;;-0.32;100.00
57234;BME280;43090;52.604;13.318;2024-01-06T10:43:12;100549.09;;;-0.70;100.00
57234;BME280;43090;52.604;13.318;2024-01-06T10:45:53;100535.13;;;-0.72;100.00
57234;BME280;43090;52.604;13.318;2024-01-06T10:48:25;100532.16;;;-1.26;100.00
57234;BME280;43090;52.604;13.318;2024-01-06T10:50:54;100574.28;;;-0.61;100.00
57234;BME280;43090;52.604;13.318;2024-01-06T10:53:21;100574.84;;;-0.50;100.00
57234;BME280;43090;52.604;13.318;2024-01-06T10:55:52;100545.00;;;-0.80;100.00
57234;BME280;43090;52.604;13.318;2024-01-06T10:58:24;100550.13;;;-0.76;100.00
57234;BME280;43090;52.604;13.318;2024-01-06T11:04:11;100561.47;;;-0.74;100.00
57234;BME280;43090;52.604;13.318;2024-01-06T11:06:41;100536.06;;;-1.08;100.00
57234;BME280;43090;52.604;13.318;2024-01-06T11:09:16;100550.50;;;-0.90;100.00
57234;BME280;43090;52.604;13.318;2024-01-06T11:11:47;100570.00;;;-0.65;100.00
57234;BME280;43090;52.604;13.318;2024-01-06T11:16:51;100567.81;;;-0.82;100.00
57234;BME280;43090;52.604;13.318;2024-01-06T11:23:21;100560.13;;;-0.90;100.00
57234;BME280;43090;52.604;13.318;2024-01-06T11:26:06;100546.09;;;-0.89;100.00
57234;BME280;43090;52.604;13.318;2024-01-06T11:28:50;100546.50;;;-0.72;100.00
57234;BME280;43090;52.604;13.318;2024-01-06T11:31:22;100570.75;;;-0.60;100.00
57234;BME280;43090;52.604;13.318;2024-01-06T11:33:51;100554.84;;;-0.89;100.00
57234;BME280;43090;52.604;13.318;2024-01-06T11:36:19;100582.16;;;-0.61;100.00
57234;BME280;43090;52.604;13.318;2024-01-06T11:38:46;100560.56;;;-0.73;100.00
57234;BME280;43090;52.604;13.318;2024-01-06T11:41:48;100594.22;;;-0.21;100.00
57234;BME280;43090;52.604;13.318;2024-01-06T11:44:20;100558.75;;;-0.71;100.00
57234;BME280;43090;52.604;13.318;2024-01-06T11:46:47;100583.03;;;-0.61;100.00
57234;BME280;43090;52.604;13.318;2024-01-06T11:49:20;100567.03;;;-0.86;100.00
57234;BME280;43090;52.604;13.318;2024-01-06T11:51:48;100549.81;;;-0.98;100.00
57234;BME280;43090;52.604;13.318;2024-01-06T11:54:21;100546.66;;;-1.11;100.00
57234;BME280;43090;52.604;13.318;2024-01-06T11:57:34;100583.44;;;-0.76;100.00
57234;BME280;43090;52.604;13.318;2024-01-06T12:00:13;100538.69;;;-1.08;100.00
57234;BME280;43090;52.604;13.318;2024-01-06T12:03:08;100549.16;;;-1.06;100.00
57234;BME280;43090;52.604;13.318;2024-01-06T12:06:20;100573.22;;;-0.87;100.00
57234;BME280;43090;52.604;13.318;2024-01-06T12:08:51;100543.63;;;-0.95;100.00
57234;BME280;43090;52.604;13.318;2024-01-06T12:11:33;100568.72;;;-0.84;100.00
57234;BME280;43090;52.604;13.318;2024-01-06T12:14:27;100566.31;;;-0.91;100.00
57234;BME280;43090;52.604;13.318;2024-01-06T12:17:04;100566.72;;;-1.07;100.00
57234;BME280;43090;52.604;13.318;2024-01-06T12:20:16;100587.00;;;-0.79;100.00
57234;BME280;43090;52.604;13.318;2024-01-06T12:23:05;100600.06;;;-0.43;100.00
57234;BME280;43090;52.604;13.318;2024-01-06T12:26:01;100602.41;;;-0.65;100.00
57234;BME280;43090;52.604;13.318;2024-01-06T12:29:00;100610.31;;;-0.34;100.00
57234;BME280;43090;52.604;13.318;2024-01-06T12:31:54;100611.47;;;-0.42;100.00
57234;BME280;43090;52.604;13.318;2024-01-06T12:39:18;100603.09;;;-0.58;100.00
57234;BME280;43090;52.604;13.318;2024-01-06T12:41:54;100571.53;;;-0.90;100.00
57234;BME280;43090;52.604;13.318;2024-01-06T12:44:49;100589.50;;;-0.74;100.00
57234;BME280;43090;52.604;13.318;2024-01-06T12:52:07;100617.66;;;-0.78;100.00
57234;BME280;43090;52.604;13.318;2024-01-06T13:03:06;100589.09;;;-0.92;100.00
57234;BME280;43090;52.604;13.318;2024-01-06T13:06:11;100592.09;;;-1.06;100.00
57234;BME280;43090;52.604;13.318;2024-01-06T13:09:43;100597.97;;;-0.96;100.00
57234;BME280;43090;52.604;13.318;2024-01-06T13:12:55;100612.41;;;-0.78;100.00
57234;BME280;43090;52.604;13.318;2024-01-06T13:15:53;100611.72;;;-0.52;100.00
57234;BME280;43090;52.604;13.318;2024-01-06T13:18:51;100604.44;;;-0.75;100.00
57234;BME280;43090;52.604;13.318;2024-01-06T13:22:16;100642.03;;;-0.71;100.00
57234;BME280;43090;52.604;13.318;2024-01-06T13:43:49;100669.09;;;-1.04;100.00
57234;BME280;43090;52.604;13.318;2024-01-06T13:50:57;100697.75;;;-0.91;100.00
57234;BME280;43090;52.604;13.318;2024-01-06T13:53:25;100662.28;;;-1.11;100.00
57234;BME280;43090;52.604;13.318;2024-01-06T13:55:54;100677.06;;;-1.07;100.00
57234;BME280;43090;52.604;13.318;2024-01-06T13:58:23;100667.31;;;-1.02;100.00
57234;BME280;43090;52.604;13.318;2024-01-06T14:00:57;100654.31;;;-1.08;100.00
57234;BME280;43090;52.604;13.318;2024-01-06T14:07:14;100659.66;;;-1.11;100.00
57234;BME280;43090;52.604;13.318;2024-01-06T14:09:46;100677.44;;;-1.22;100.00
57234;BME280;43090;52.604;13.318;2024-01-06T14:12:32;100663.31;;;-1.18;100.00
57234;BME280;43090;52.604;13.318;2024-01-06T14:15:02;100690.56;;;-0.86;100.00
57234;BME280;43090;52.604;13.318;2024-01-06T14:17:35;100687.09;;;-0.87;100.00
57234;BME280;43090;52.604;13.318;2024-01-06T14:20:02;100692.53;;;-0.94;100.00
57234;BME280;43090;52.604;13.318;2024-01-06T14:22:37;100696.16;;;-0.98;100.00
57234;BME280;43090;52.604;13.318;2024-01-06T14:25:08;100693.09;;;-1.19;100.00
57234;BME280;43090;52.604;13.318;2024-01-06T14:30:50;100685.78;;;-1.05;100.00
57234;BME280;43090;52.604;13.318;2024-01-06T14:33:22;100712.72;;;-0.95;100.00
57234;BME280;43090;52.604;13.318;2024-01-06T14:35:52;100735.22;;;-0.83;100.00
57234;BME280;43090;52.604;13.318;2024-01-06T14:38:20;100736.66;;;-0.70;100.00
57234;BME280;43090;52.604;13.318;2024-01-06T14:40:49;100756.41;;;-0.91;100.00
57234;BME280;43090;52.604;13.318;2024-01-06T14:43:38;100721.53;;;-0.97;100.00
57234;BME280;43090;52.604;13.318;2024-01-06T14:46:12;100742.69;;;-1.04;100.00
57234;BME280;43090;52.604;13.318;2024-01-06T14:48:39;100712.69;;;-0.93;100.00
57234;BME280;43090;52.604;13.318;2024-01-06T14:51:08;100744.03;;;-0.86;100.00
57234;BME280;43090;52.604;13.318;2024-01-06T14:53:34;100761.97;;;-0.65;100.00
57234;BME280;43090;52.604;13.318;2024-01-06T14:56:01;100733.75;;;-0.95;100.00
57234;BME280;43090;52.604;13.318;2024-01-06T14:58:30;100754.44;;;-0.81;100.00
57234;BME280;43090;52.604;13.318;2024-01-06T15:00:56;100773.81;;;-0.49;100.00
57234;BME280;43090;52.604;13.318;2024-01-06T15:03:23;100747.59;;;-0.88;100.00
57234;BME280;43090;52.604;13.318;2024-01-06T15:05:50;100752.72;;;-0.82;100.00
57234;BME280;43090;52.604;13.318;2024-01-06T15:08:17;100751.34;;;-0.62;100.00
57234;BME280;43090;52.604;13.318;2024-01-06T15:10:44;100745.78;;;-0.85;100.00
57234;BME280;43090;52.604;13.318;2024-01-06T15:13:11;100781.09;;;-0.59;100.00
57234;BME280;43090;52.604;13.318;2024-01-06T15:15:38;100796.16;;;-1.05;100.00
57234;BME280;43090;52.604;13.318;2024-01-06T15:18:10;100780.69;;;-0.79;100.00
57234;BME280;43090;52.604;13.318;2024-01-06T15:20:40;100779.75;;;-0.77;100.00
57234;BME280;43090;52.604;13.318;2024-01-06T15:23:07;100778.94;;;-0.79;100.00
57234;BME280;43090;52.604;13.318;2024-01-06T15:25:37;100775.06;;;-1.02;100.00
57234;BME280;43090;52.604;13.318;2024-01-06T15:28:04;100765.59;;;-1.09;100.00
57234;BME280;43090;52.604;13.318;2024-01-06T15:33:48;100785.72;;;-1.08;100.00
57234;BME280;43090;52.604;13.318;2024-01-06T15:36:15;100797.97;;;-1.07;100.00
57234;BME280;43090;52.604;13.318;2024-01-06T15:38:42;100795.44;;;-1.13;100.00
57234;BME280;43090;52.604;13.318;2024-01-06T15:41:09;100785.31;;;-1.30;100.00
57234;BME280;43090;52.604;13.318;2024-01-06T15:43:35;100789.72;;;-1.30;100.00
57234;BME280;43090;52.604;13.318;2024-01-06T15:46:04;100780.72;;;-1.20;100.00
57234;BME280;43090;52.604;13.318;2024-01-06T15:48:31;100794.69;;;-1.18;100.00
57234;BME280;43090;52.604;13.318;2024-01-06T15:50:59;100830.53;;;-0.75;100.00
57234;BME280;43090;52.604;13.318;2024-01-06T15:53:26;100805.97;;;-1.13;100.00
57234;BME280;43090;52.604;13.318;2024-01-06T15:55:52;100820.56;;;-0.99;100.00
57234;BME280;43090;52.604;13.318;2024-01-06T15:58:19;100838.09;;;-1.00;100.00
57234;BME280;43090;52.604;13.318;2024-01-06T16:00:46;100820.88;;;-1.13;100.00
57234;BME280;43090;52.604;13.318;2024-01-06T16:03:12;100810.44;;;-1.18;100.00
57234;BME280;43090;52.604;13.318;2024-01-06T16:05:39;100817.16;;;-1.05;100.00
57234;BME280;43090;52.604;13.318;2024-01-06T16:08:08;100847.53;;;-0.90;100.00
57234;BME280;43090;52.604;13.318;2024-01-06T16:13:58;100816.00;;;-1.32;100.00
57234;BME280;43090;52.604;13.318;2024-01-06T16:16:32;100807.34;;;-1.37;100.00
57234;BME280;43090;52.604;13.318;2024-01-06T16:19:13;100817.53;;;-1.20;100.00
57234;BME280;43090;52.604;13.318;2024-01-06T16:21:40;100846.94;;;-1.03;100.00
57234;BME280;43090;52.604;13.318;2024-01-06T16:24:06;100849.63;;;-1.07;100.00
57234;BME280;43090;52.604;13.318;2024-01-06T16:26:33;100841.88;;;-1.12;100.00
57234;BME280;43090;52.604;13.318;2024-01-06T16:29:00;100837.50;;;-1.13;100.00
57234;BME280;43090;52.604;13.318;2024-01-06T16:31:40;100824.59;;;-0.83;100.00
57234;BME280;43090;52.604;13.318;2024-01-06T16:34:48;100859.75;;;-0.87;100.00
57234;BME280;43090;52.604;13.318;2024-01-06T16:37:22;100848.22;;;-1.24;100.00
57234;BME280;43090;52.604;13.318;2024-01-06T16:39:48;100877.59;;;-1.03;100.00
57234;BME280;43090;52.604;13.318;2024-01-06T16:42:17;100874.28;;;-1.13;100.00
57234;BME280;43090;52.604;13.318;2024-01-06T16:44:44;100855.06;;;-1.15;100.00
57234;BME280;43090;52.604;13.318;2024-01-06T16:47:10;100889.63;;;-0.91;100.00
57234;BME280;43090;52.604;13.318;2024-01-06T16:49:37;100870.84;;;-1.17;100.00
57234;BME280;43090;52.604;13.318;2024-01-06T16:52:04;100870.09;;;-1.22;100.00
57234;BME280;43090;52.604;13.318;2024-01-06T16:54:30;100883.66;;;-0.99;100.00
57234;BME280;43090;52.604;13.318;2024-01-06T16:56:57;100903.72;;;-0.95;100.00
57234;BME280;43090;52.604;13.318;2024-01-06T16:59:26;100860.53;;;-1.24;100.00
57234;BME280;43090;52.604;13.318;2024-01-06T17:01:54;100861.81;;;-1.45;100.00